sensor_id;sensor_type;location;lat;lon;timestamp;temperature;humidity
36716;DHT22;22699;51.034;3.730;2023-07-24T00:01:09;19.20;99.90
36716;DHT22;22699;51.034;3.730;2023-07-24T00:03:35;19.30;99.90
36716;DHT22;22699;51.034;3.730;2023-07-24T00:06:02;19.20;99.90
36716;DHT22;22699;51.034;3.730;2023-07-24T00:08:28;19.20;99.90
36716;DHT22;22699;51.034;3.730;2023-07-24T00:10:53;19.20;99.90
36716;DHT22;22699;51.034;3.730;2023-07-24T00:13:19;19.10;99.90
36716;DHT22;22699;51.034;3.730;2023-07-24T00:15:45;19.20;99.90
36716;DHT22;22699;51.034;3.730;2023-07-24T00:18:11;19.20;99.90
36716;DHT22;22699;51.034;3.730;2023-07-24T00:20:38;19.10;99.90
36716;DHT22;22699;51.034;3.730;2023-07-24T00:23:04;19.10;99.90
36716;DHT22;22699;51.034;3.730;2023-07-24T00:25:30;19.10;99.90
36716;DHT22;22699;51.034;3.730;2023-07-24T00:27:56;19.00;99.90
36716;DHT22;22699;51.034;3.730;2023-07-24T00:30:21;19.10;99.90
36716;DHT22;22699;51.034;3.730;2023-07-24T00:32:47;19.00;99.90
36716;DHT22;22699;51.034;3.730;2023-07-24T00:35:13;19.00;99.90
36716;DHT22;22699;51.034;3.730;2023-07-24T00:37:38;19.00;99.90
36716;DHT22;22699;51.034;3.730;2023-07-24T00:40:04;19.00;99.90
36716;DHT22;22699;51.034;3.730;2023-07-24T00:42:30;19.10;99.90
36716;DHT22;22699;51.034;3.730;2023-07-24T00:44:56;19.00;99.90
36716;DHT22;22699;51.034;3.730;2023-07-24T00:47:22;19.00;99.90
36716;DHT22;22699;51.034;3.730;2023-07-24T00:49:49;19.10;99.90
36716;DHT22;22699;51.034;3.730;2023-07-24T00:52:16;19.10;99.90
36716;DHT22;22699;51.034;3.730;2023-07-24T00:54:42;19.20;99.90
36716;DHT22;22699;51.034;3.730;2023-07-24T00:57:08;19.00;99.90
36716;DHT22;22699;51.034;3.730;2023-07-24T00:59:34;19.00;99.90
36716;DHT22;22699;51.034;3.730;2023-07-24T01:02:01;19.00;99.90
36716;DHT22;22699;51.034;3.730;2023-07-24T01:04:26;19.20;99.90
36716;DHT22;22699;51.034;3.730;2023-07-24T01:06:52;19.30;99.90
36716;DHT22;22699;51.034;3.730;2023-07-24T01:09:18;19.20;99.90
36716;DHT22;22699;51.034;3.730;2023-07-24T01:11:47;19.20;99.90
36716;DHT22;22699;51.034;3.730;2023-07-24T01:14:25;18.90;99.90
36716;DHT22;22699;51.034;3.730;2023-07-24T01:16:55;18.80;99.90
36716;DHT22;22699;51.034;3.730;2023-07-24T01:19:37;18.70;99.90
36716;DHT22;22699;51.034;3.730;2023-07-24T01:25:18;18.50;99.90
36716;DHT22;22699;51.034;3.730;2023-07-24T01:27:49;18.50;99.90
36716;DHT22;22699;51.034;3.730;2023-07-24T01:30:18;18.70;99.90
36716;DHT22;22699;51.034;3.730;2023-07-24T01:32:44;18.50;99.90
36716;DHT22;22699;51.034;3.730;2023-07-24T01:35:10;18.50;99.90
36716;DHT22;22699;51.034;3.730;2023-07-24T01:37:36;18.50;99.90
36716;DHT22;22699;51.034;3.730;2023-07-24T01:40:06;18.50;99.90
36716;DHT22;22699;51.034;3.730;2023-07-24T01:42:33;18.60;99.90
36716;DHT22;22699;51.034;3.730;2023-07-24T01:44:59;18.60;99.90
36716;DHT22;22699;51.034;3.730;2023-07-24T01:47:24;18.60;99.90
36716;DHT22;22699;51.034;3.730;2023-07-24T01:49:51;18.60;99.90
36716;DHT22;22699;51.034;3.730;2023-07-24T01:52:18;18.70;99.90
36716;DHT22;22699;51.034;3.730;2023-07-24T01:54:43;18.70;99.90
36716;DHT22;22699;51.034;3.730;2023-07-24T01:57:10;18.70;99.90
36716;DHT22;22699;51.034;3.730;2023-07-24T01:59:36;18.80;99.90
36716;DHT22;22699;51.034;3.730;2023-07-24T02:02:01;18.70;99.90
36716;DHT22;22699;51.034;3.730;2023-07-24T02:04:28;18.70;99.90
36716;DHT22;22699;51.034;3.730;2023-07-24T02:06:53;18.60;99.90
36716;DHT22;22699;51.034;3.730;2023-07-24T02:09:19;18.60;99.90
36716;DHT22;22699;51.034;3.730;2023-07-24T02:11:45;18.60;99.90
36716;DHT22;22699;51.034;3.730;2023-07-24T02:14:12;18.60;99.90
36716;DHT22;22699;51.034;3.730;2023-07-24T02:16:38;18.80;99.90
36716;DHT22;22699;51.034;3.730;2023-07-24T02:19:04;18.70;99.90
36716;DHT22;22699;51.034;3.730;2023-07-24T02:21:30;18.60;99.90
36716;DHT22;22699;51.034;3.730;2023-07-24T02:23:56;18.60;99.90
36716;DHT22;22699;51.034;3.730;2023-07-24T02:26:21;18.60;99.90
36716;DHT22;22699;51.034;3.730;2023-07-24T02:28:47;18.60;99.90
36716;DHT22;22699;51.034;3.730;2023-07-24T02:31:13;18.70;99.90
36716;DHT22;22699;51.034;3.730;2023-07-24T02:33:39;18.70;99.90
36716;DHT22;22699;51.034;3.730;2023-07-24T02:36:05;18.70;99.90
36716;DHT22;22699;51.034;3.730;2023-07-24T02:38:31;18.60;99.90
36716;DHT22;22699;51.034;3.730;2023-07-24T02:40:57;18.40;99.90
36716;DHT22;22699;51.034;3.730;2023-07-24T02:43:22;18.20;99.90
36716;DHT22;22699;51.034;3.730;2023-07-24T02:45:48;18.10;99.90
36716;DHT22;22699;51.034;3.730;2023-07-24T02:48:14;18.00;99.90
36716;DHT22;22699;51.034;3.730;2023-07-24T02:50:39;17.70;99.90
36716;DHT22;22699;51.034;3.730;2023-07-24T02:53:06;17.60;99.90
36716;DHT22;22699;51.034;3.730;2023-07-24T02:55:32;17.60;99.90
36716;DHT22;22699;51.034;3.730;2023-07-24T02:57:58;17.70;99.90
36716;DHT22;22699;51.034;3.730;2023-07-24T03:00:24;17.70;99.90
36716;DHT22;22699;51.034;3.730;2023-07-24T03:02:52;17.60;99.90
36716;DHT22;22699;51.034;3.730;2023-07-24T03:05:17;17.70;99.90
36716;DHT22;22699;51.034;3.730;2023-07-24T03:07:43;17.90;99.90
36716;DHT22;22699;51.034;3.730;2023-07-24T03:10:09;17.90;99.90
36716;DHT22;22699;51.034;3.730;2023-07-24T03:12:35;17.80;99.90
36716;DHT22;22699;51.034;3.730;2023-07-24T03:15:00;17.80;99.90
36716;DHT22;22699;51.034;3.730;2023-07-24T03:17:26;17.80;99.90
36716;DHT22;22699;51.034;3.730;2023-07-24T03:19:53;17.80;99.90
36716;DHT22;22699;51.034;3.730;2023-07-24T03:22:19;17.80;99.90
36716;DHT22;22699;51.034;3.730;2023-07-24T03:24:45;17.70;99.90
36716;DHT22;22699;51.034;3.730;2023-07-24T03:27:10;17.80;99.90
36716;DHT22;22699;51.034;3.730;2023-07-24T03:29:36;17.80;99.90
36716;DHT22;22699;51.034;3.730;2023-07-24T03:32:02;17.70;99.90
36716;DHT22;22699;51.034;3.730;2023-07-24T03:34:28;17.80;99.90
36716;DHT22;22699;51.034;3.730;2023-07-24T03:36:54;17.80;99.90
36716;DHT22;22699;51.034;3.730;2023-07-24T03:39:19;17.80;99.90
36716;DHT22;22699;51.034;3.730;2023-07-24T03:41:45;17.80;99.90
36716;DHT22;22699;51.034;3.730;2023-07-24T03:44:11;17.90;99.90
36716;DHT22;22699;51.034;3.730;2023-07-24T03:46:36;17.90;99.90
36716;DHT22;22699;51.034;3.730;2023-07-24T03:49:02;18.00;99.90
36716;DHT22;22699;51.034;3.730;2023-07-24T03:51:27;18.00;99.90
36716;DHT22;22699;51.034;3.730;2023-07-24T03:53:53;17.90;99.90
36716;DHT22;22699;51.034;3.730;2023-07-24T03:56:19;17.80;99.90
36716;DHT22;22699;51.034;3.730;2023-07-24T03:58:45;17.80;99.90
36716;DHT22;22699;51.034;3.730;2023-07-24T04:01:10;17.80;99.90
36716;DHT22;22699;51.034;3.730;2023-07-24T04:03:37;17.80;99.90
36716;DHT22;22699;51.034;3.730;2023-07-24T04:06:03;17.80;99.90
36716;DHT22;22699;51.034;3.730;2023-07-24T04:08:29;17.80;99.90
36716;DHT22;22699;51.034;3.730;2023-07-24T04:10:54;17.70;99.90
36716;DHT22;22699;51.034;3.730;2023-07-24T04:13:22;17.70;99.90
36716;DHT22;22699;51.034;3.730;2023-07-24T04:15:47;17.70;99.90
36716;DHT22;22699;51.034;3.730;2023-07-24T04:18:13;17.60;99.90
36716;DHT22;22699;51.034;3.730;2023-07-24T04:20:38;17.60;99.90
36716;DHT22;22699;51.034;3.730;2023-07-24T04:23:04;17.60;99.90
36716;DHT22;22699;51.034;3.730;2023-07-24T04:25:30;17.70;99.90
36716;DHT22;22699;51.034;3.730;2023-07-24T04:27:55;17.60;99.90
36716;DHT22;22699;51.034;3.730;2023-07-24T04:30:21;17.70;99.90
36716;DHT22;22699;51.034;3.730;2023-07-24T04:32:47;17.70;99.90
36716;DHT22;22699;51.034;3.730;2023-07-24T04:35:12;17.70;99.90
36716;DHT22;22699;51.034;3.730;2023-07-24T04:37:38;17.60;99.90
36716;DHT22;22699;51.034;3.730;2023-07-24T04:40:04;17.60;99.90
36716;DHT22;22699;51.034;3.730;2023-07-24T04:42:30;17.70;99.90
36716;DHT22;22699;51.034;3.730;2023-07-24T04:44:56;17.70;99.90
36716;DHT22;22699;51.034;3.730;2023-07-24T04:47:22;17.70;99.90
36716;DHT22;22699;51.034;3.730;2023-07-24T04:49:48;17.60;99.90
36716;DHT22;22699;51.034;3.730;2023-07-24T04:52:13;17.70;99.90
36716;DHT22;22699;51.034;3.730;2023-07-24T04:54:39;17.80;99.90
36716;DHT22;22699;51.034;3.730;2023-07-24T04:57:05;17.80;99.90
36716;DHT22;22699;51.034;3.730;2023-07-24T04:59:30;17.80;99.90
36716;DHT22;22699;51.034;3.730;2023-07-24T05:01:56;17.80;99.90
36716;DHT22;22699;51.034;3.730;2023-07-24T05:04:21;17.90;99.90
36716;DHT22;22699;51.034;3.730;2023-07-24T05:06:47;17.90;99.90
36716;DHT22;22699;51.034;3.730;2023-07-24T05:09:13;18.00;99.90
36716;DHT22;22699;51.034;3.730;2023-07-24T05:11:40;18.10;99.90
36716;DHT22;22699;51.034;3.730;2023-07-24T05:14:07;18.00;99.90
36716;DHT22;22699;51.034;3.730;2023-07-24T05:16:33;17.90;99.90
36716;DHT22;22699;51.034;3.730;2023-07-24T05:18:59;18.20;99.90
36716;DHT22;22699;51.034;3.730;2023-07-24T05:21:25;18.20;99.90
36716;DHT22;22699;51.034;3.730;2023-07-24T05:23:50;18.20;99.90
36716;DHT22;22699;51.034;3.730;2023-07-24T05:26:16;18.30;99.90
36716;DHT22;22699;51.034;3.730;2023-07-24T05:28:42;18.30;99.90
36716;DHT22;22699;51.034;3.730;2023-07-24T05:31:07;18.30;99.90
36716;DHT22;22699;51.034;3.730;2023-07-24T05:33:33;18.40;99.90
36716;DHT22;22699;51.034;3.730;2023-07-24T05:36:03;18.50;99.90
36716;DHT22;22699;51.034;3.730;2023-07-24T05:38:29;18.60;99.90
36716;DHT22;22699;51.034;3.730;2023-07-24T05:41:00;18.60;99.90
36716;DHT22;22699;51.034;3.730;2023-07-24T05:43:27;18.40;99.90
36716;DHT22;22699;51.034;3.730;2023-07-24T05:45:53;18.30;99.90
36716;DHT22;22699;51.034;3.730;2023-07-24T05:48:22;18.30;99.90
36716;DHT22;22699;51.034;3.730;2023-07-24T05:50:48;18.40;99.90
36716;DHT22;22699;51.034;3.730;2023-07-24T05:53:15;18.40;99.90
36716;DHT22;22699;51.034;3.730;2023-07-24T05:55:41;18.60;99.90
36716;DHT22;22699;51.034;3.730;2023-07-24T05:58:08;18.80;99.90
36716;DHT22;22699;51.034;3.730;2023-07-24T06:00:33;18.90;99.90
36716;DHT22;22699;51.034;3.730;2023-07-24T06:02:59;18.80;99.90
36716;DHT22;22699;51.034;3.730;2023-07-24T06:05:25;18.80;99.90
36716;DHT22;22699;51.034;3.730;2023-07-24T06:07:50;18.80;99.90
36716;DHT22;22699;51.034;3.730;2023-07-24T06:10:16;18.80;99.90
36716;DHT22;22699;51.034;3.730;2023-07-24T06:12:41;19.00;99.90
36716;DHT22;22699;51.034;3.730;2023-07-24T06:15:07;19.10;99.90
36716;DHT22;22699;51.034;3.730;2023-07-24T06:17:33;19.00;99.90
36716;DHT22;22699;51.034;3.730;2023-07-24T06:19:59;19.00;99.90
36716;DHT22;22699;51.034;3.730;2023-07-24T06:22:25;19.10;99.90
36716;DHT22;22699;51.034;3.730;2023-07-24T06:24:50;19.20;99.90
36716;DHT22;22699;51.034;3.730;2023-07-24T06:27:17;19.10;99.90
36716;DHT22;22699;51.034;3.730;2023-07-24T06:29:43;19.00;99.90
36716;DHT22;22699;51.034;3.730;2023-07-24T06:32:09;18.90;99.90
36716;DHT22;22699;51.034;3.730;2023-07-24T06:34:34;19.10;99.90
36716;DHT22;22699;51.034;3.730;2023-07-24T06:37:00;19.10;99.90
36716;DHT22;22699;51.034;3.730;2023-07-24T06:39:27;19.20;99.90
36716;DHT22;22699;51.034;3.730;2023-07-24T06:41:54;19.20;99.90
36716;DHT22;22699;51.034;3.730;2023-07-24T06:44:21;19.10;99.90
36716;DHT22;22699;51.034;3.730;2023-07-24T06:46:57;19.10;99.90
36716;DHT22;22699;51.034;3.730;2023-07-24T06:49:39;19.10;99.90
36716;DHT22;22699;51.034;3.730;2023-07-24T06:52:13;19.20;99.90
36716;DHT22;22699;51.034;3.730;2023-07-24T06:54:40;19.00;99.90
36716;DHT22;22699;51.034;3.730;2023-07-24T06:57:09;18.90;99.90
36716;DHT22;22699;51.034;3.730;2023-07-24T07:00:17;18.80;99.90
36716;DHT22;22699;51.034;3.730;2023-07-24T07:02:47;18.80;99.90
36716;DHT22;22699;51.034;3.730;2023-07-24T07:05:13;18.70;99.90
36716;DHT22;22699;51.034;3.730;2023-07-24T07:07:39;18.60;99.90
36716;DHT22;22699;51.034;3.730;2023-07-24T07:10:18;18.70;99.90
36716;DHT22;22699;51.034;3.730;2023-07-24T07:13:01;18.60;99.90
36716;DHT22;22699;51.034;3.730;2023-07-24T07:15:32;18.70;99.90
36716;DHT22;22699;51.034;3.730;2023-07-24T07:18:47;18.70;99.90
36716;DHT22;22699;51.034;3.730;2023-07-24T07:21:14;18.60;99.90
36716;DHT22;22699;51.034;3.730;2023-07-24T07:26:53;18.60;99.90
36716;DHT22;22699;51.034;3.730;2023-07-24T07:32:41;18.80;99.90
36716;DHT22;22699;51.034;3.730;2023-07-24T07:35:21;19.30;99.90
36716;DHT22;22699;51.034;3.730;2023-07-24T07:37:48;19.50;99.90
36716;DHT22;22699;51.034;3.730;2023-07-24T07:40:14;19.60;99.90
36716;DHT22;22699;51.034;3.730;2023-07-24T07:42:42;19.50;99.90
36716;DHT22;22699;51.034;3.730;2023-07-24T07:45:10;19.50;99.90
36716;DHT22;22699;51.034;3.730;2023-07-24T07:47:36;19.70;99.90
36716;DHT22;22699;51.034;3.730;2023-07-24T07:50:02;19.90;99.90
36716;DHT22;22699;51.034;3.730;2023-07-24T07:52:27;20.00;99.90
36716;DHT22;22699;51.034;3.730;2023-07-24T07:54:54;20.10;99.90
36716;DHT22;22699;51.034;3.730;2023-07-24T07:57:19;20.30;99.90
36716;DHT22;22699;51.034;3.730;2023-07-24T07:59:45;20.40;99.90
36716;DHT22;22699;51.034;3.730;2023-07-24T08:02:11;20.40;99.90
36716;DHT22;22699;51.034;3.730;2023-07-24T08:04:36;20.50;99.90
36716;DHT22;22699;51.034;3.730;2023-07-24T08:07:02;20.50;99.90
36716;DHT22;22699;51.034;3.730;2023-07-24T08:09:28;20.40;99.90
36716;DHT22;22699;51.034;3.730;2023-07-24T08:11:53;20.60;99.90
36716;DHT22;22699;51.034;3.730;2023-07-24T08:14:19;20.60;99.90
36716;DHT22;22699;51.034;3.730;2023-07-24T08:16:47;20.50;99.90
36716;DHT22;22699;51.034;3.730;2023-07-24T08:19:13;20.80;99.90
36716;DHT22;22699;51.034;3.730;2023-07-24T08:21:38;20.90;99.90
36716;DHT22;22699;51.034;3.730;2023-07-24T08:24:05;21.00;99.90
36716;DHT22;22699;51.034;3.730;2023-07-24T08:26:31;21.00;99.90
36716;DHT22;22699;51.034;3.730;2023-07-24T08:28:56;21.60;99.90
36716;DHT22;22699;51.034;3.730;2023-07-24T08:31:22;22.50;99.90
36716;DHT22;22699;51.034;3.730;2023-07-24T08:33:48;23.50;99.90
36716;DHT22;22699;51.034;3.730;2023-07-24T08:36:13;24.20;99.90
36716;DHT22;22699;51.034;3.730;2023-07-24T08:38:40;24.20;99.90
36716;DHT22;22699;51.034;3.730;2023-07-24T08:41:11;24.30;99.90
36716;DHT22;22699;51.034;3.730;2023-07-24T08:43:43;24.40;99.90
36716;DHT22;22699;51.034;3.730;2023-07-24T08:46:09;24.60;99.90
36716;DHT22;22699;51.034;3.730;2023-07-24T08:48:39;24.60;99.60
36716;DHT22;22699;51.034;3.730;2023-07-24T08:51:10;25.20;99.50
36716;DHT22;22699;51.034;3.730;2023-07-24T08:53:37;26.60;97.20
36716;DHT22;22699;51.034;3.730;2023-07-24T08:56:04;29.30;93.00
36716;DHT22;22699;51.034;3.730;2023-07-24T08:58:31;32.30;88.40
36716;DHT22;22699;51.034;3.730;2023-07-24T09:00:57;32.40;77.20
36716;DHT22;22699;51.034;3.730;2023-07-24T09:03:24;30.20;77.80
36716;DHT22;22699;51.034;3.730;2023-07-24T09:05:50;29.20;80.00
36716;DHT22;22699;51.034;3.730;2023-07-24T09:08:15;27.70;85.30
36716;DHT22;22699;51.034;3.730;2023-07-24T09:10:41;26.90;87.50
36716;DHT22;22699;51.034;3.730;2023-07-24T09:13:07;27.20;86.70
36716;DHT22;22699;51.034;3.730;2023-07-24T09:15:43;30.50;80.60
36716;DHT22;22699;51.034;3.730;2023-07-24T09:18:09;34.90;70.50
36716;DHT22;22699;51.034;3.730;2023-07-24T09:20:41;36.70;61.50
36716;DHT22;22699;51.034;3.730;2023-07-24T09:23:09;38.50;57.90
36716;DHT22;22699;51.034;3.730;2023-07-24T09:25:38;40.00;53.60
36716;DHT22;22699;51.034;3.730;2023-07-24T09:28:17;38.90;53.70
36716;DHT22;22699;51.034;3.730;2023-07-24T09:30:55;36.40;55.40
36716;DHT22;22699;51.034;3.730;2023-07-24T09:33:42;34.40;59.50
36716;DHT22;22699;51.034;3.730;2023-07-24T09:36:09;33.40;60.50
36716;DHT22;22699;51.034;3.730;2023-07-24T09:38:37;32.80;61.40
36716;DHT22;22699;51.034;3.730;2023-07-24T09:41:04;32.30;62.20
36716;DHT22;22699;51.034;3.730;2023-07-24T09:43:30;31.80;62.30
36716;DHT22;22699;51.034;3.730;2023-07-24T09:45:56;31.20;63.90
36716;DHT22;22699;51.034;3.730;2023-07-24T09:48:24;29.90;67.60
36716;DHT22;22699;51.034;3.730;2023-07-24T09:50:56;28.50;69.70
36716;DHT22;22699;51.034;3.730;2023-07-24T09:55:57;27.50;73.60
36716;DHT22;22699;51.034;3.730;2023-07-24T09:58:24;27.30;72.60
36716;DHT22;22699;51.034;3.730;2023-07-24T10:00:52;28.60;70.80
36716;DHT22;22699;51.034;3.730;2023-07-24T10:03:19;29.50;69.20
36716;DHT22;22699;51.034;3.730;2023-07-24T10:05:47;30.10;66.10
36716;DHT22;22699;51.034;3.730;2023-07-24T10:08:18;30.40;63.70
36716;DHT22;22699;51.034;3.730;2023-07-24T10:10:43;30.50;64.30
36716;DHT22;22699;51.034;3.730;2023-07-24T10:13:11;30.30;64.60
36716;DHT22;22699;51.034;3.730;2023-07-24T10:15:43;29.10;65.90
36716;DHT22;22699;51.034;3.730;2023-07-24T10:18:10;28.30;68.70
36716;DHT22;22699;51.034;3.730;2023-07-24T10:20:40;27.70;67.40
36716;DHT22;22699;51.034;3.730;2023-07-24T10:23:07;27.00;70.00
36716;DHT22;22699;51.034;3.730;2023-07-24T10:25:36;26.60;71.90
36716;DHT22;22699;51.034;3.730;2023-07-24T10:28:06;25.80;72.70
36716;DHT22;22699;51.034;3.730;2023-07-24T10:30:39;25.20;74.90
36716;DHT22;22699;51.034;3.730;2023-07-24T10:33:13;25.10;74.80
36716;DHT22;22699;51.034;3.730;2023-07-24T10:35:53;25.20;75.20
36716;DHT22;22699;51.034;3.730;2023-07-24T10:38:19;25.30;75.80
36716;DHT22;22699;51.034;3.730;2023-07-24T10:41:02;25.10;76.40
36716;DHT22;22699;51.034;3.730;2023-07-24T10:43:28;25.10;76.60
36716;DHT22;22699;51.034;3.730;2023-07-24T10:45:55;24.90;77.50
36716;DHT22;22699;51.034;3.730;2023-07-24T10:48:25;24.90;77.80
36716;DHT22;22699;51.034;3.730;2023-07-24T10:50:51;25.40;76.00
36716;DHT22;22699;51.034;3.730;2023-07-24T10:53:19;25.80;74.80
36716;DHT22;22699;51.034;3.730;2023-07-24T10:55:46;26.00;74.20
36716;DHT22;22699;51.034;3.730;2023-07-24T10:58:14;26.10;74.30
36716;DHT22;22699;51.034;3.730;2023-07-24T11:00:41;25.50;76.10
36716;DHT22;22699;51.034;3.730;2023-07-24T11:03:09;25.10;76.50
36716;DHT22;22699;51.034;3.730;2023-07-24T11:05:42;24.50;78.10
36716;DHT22;22699;51.034;3.730;2023-07-24T11:08:15;24.30;78.70
36716;DHT22;22699;51.034;3.730;2023-07-24T11:13:15;24.40;78.40
36716;DHT22;22699;51.034;3.730;2023-07-24T11:15:41;24.30;79.70
36716;DHT22;22699;51.034;3.730;2023-07-24T11:18:06;24.10;80.20
36716;DHT22;22699;51.034;3.730;2023-07-24T11:20:47;24.00;80.50
36716;DHT22;22699;51.034;3.730;2023-07-24T11:23:14;23.90;81.90
36716;DHT22;22699;51.034;3.730;2023-07-24T11:25:40;23.80;81.80
36716;DHT22;22699;51.034;3.730;2023-07-24T11:28:09;24.00;82.10
36716;DHT22;22699;51.034;3.730;2023-07-24T11:30:35;24.00;82.00
36716;DHT22;22699;51.034;3.730;2023-07-24T11:33:03;24.20;81.70
36716;DHT22;22699;51.034;3.730;2023-07-24T11:35:29;24.40;81.50
36716;DHT22;22699;51.034;3.730;2023-07-24T11:37:55;24.70;79.40
36716;DHT22;22699;51.034;3.730;2023-07-24T11:40:21;24.70;79.60
36716;DHT22;22699;51.034;3.730;2023-07-24T11:42:48;24.60;80.00
36716;DHT22;22699;51.034;3.730;2023-07-24T11:45:14;24.00;82.30
36716;DHT22;22699;51.034;3.730;2023-07-24T11:47:47;23.70;83.30
36716;DHT22;22699;51.034;3.730;2023-07-24T11:50:16;23.70;85.80
36716;DHT22;22699;51.034;3.730;2023-07-24T11:52:52;23.70;83.90
36716;DHT22;22699;51.034;3.730;2023-07-24T11:55:38;24.00;83.40
36716;DHT22;22699;51.034;3.730;2023-07-24T11:58:04;24.20;82.80
36716;DHT22;22699;51.034;3.730;2023-07-24T12:00:33;24.40;83.10
36716;DHT22;22699;51.034;3.730;2023-07-24T12:03:01;24.50;82.30
36716;DHT22;22699;51.034;3.730;2023-07-24T12:05:26;24.50;82.10
36716;DHT22;22699;51.034;3.730;2023-07-24T12:07:54;24.50;83.00
36716;DHT22;22699;51.034;3.730;2023-07-24T12:10:27;24.30;83.30
36716;DHT22;22699;51.034;3.730;2023-07-24T12:12:53;24.50;82.90
36716;DHT22;22699;51.034;3.730;2023-07-24T12:15:19;24.40;82.60
36716;DHT22;22699;51.034;3.730;2023-07-24T12:17:44;24.30;84.20
36716;DHT22;22699;51.034;3.730;2023-07-24T12:20:10;23.70;87.20
36716;DHT22;22699;51.034;3.730;2023-07-24T12:22:38;23.40;88.80
36716;DHT22;22699;51.034;3.730;2023-07-24T12:25:06;23.20;90.20
36716;DHT22;22699;51.034;3.730;2023-07-24T12:27:35;22.90;90.70
36716;DHT22;22699;51.034;3.730;2023-07-24T12:30:03;23.20;90.00
36716;DHT22;22699;51.034;3.730;2023-07-24T12:32:28;23.20;90.00
36716;DHT22;22699;51.034;3.730;2023-07-24T12:34:55;23.60;89.20
36716;DHT22;22699;51.034;3.730;2023-07-24T12:37:21;23.80;86.90
36716;DHT22;22699;51.034;3.730;2023-07-24T12:39:47;24.10;86.60
36716;DHT22;22699;51.034;3.730;2023-07-24T12:42:16;24.50;83.80
36716;DHT22;22699;51.034;3.730;2023-07-24T12:44:42;24.90;81.50
36716;DHT22;22699;51.034;3.730;2023-07-24T12:47:10;25.00;80.40
36716;DHT22;22699;51.034;3.730;2023-07-24T12:49:36;25.20;76.90
36716;DHT22;22699;51.034;3.730;2023-07-24T12:52:03;25.50;76.20
36716;DHT22;22699;51.034;3.730;2023-07-24T12:54:29;25.60;76.70
36716;DHT22;22699;51.034;3.730;2023-07-24T12:57:01;25.80;77.00
36716;DHT22;22699;51.034;3.730;2023-07-24T12:59:27;25.30;79.30
36716;DHT22;22699;51.034;3.730;2023-07-24T13:01:53;25.20;80.00
36716;DHT22;22699;51.034;3.730;2023-07-24T13:04:19;25.10;80.10
36716;DHT22;22699;51.034;3.730;2023-07-24T13:06:45;24.90;80.50
36716;DHT22;22699;51.034;3.730;2023-07-24T13:09:10;24.50;81.60
36716;DHT22;22699;51.034;3.730;2023-07-24T13:11:36;24.10;83.60
36716;DHT22;22699;51.034;3.730;2023-07-24T13:14:02;23.70;85.60
36716;DHT22;22699;51.034;3.730;2023-07-24T13:16:27;23.50;87.70
36716;DHT22;22699;51.034;3.730;2023-07-24T13:18:53;23.20;87.40
36716;DHT22;22699;51.034;3.730;2023-07-24T13:21:19;22.90;89.70
36716;DHT22;22699;51.034;3.730;2023-07-24T13:23:45;22.60;91.00
36716;DHT22;22699;51.034;3.730;2023-07-24T13:26:12;22.40;92.50
36716;DHT22;22699;51.034;3.730;2023-07-24T13:28:38;22.30;93.80
36716;DHT22;22699;51.034;3.730;2023-07-24T13:31:30;22.00;95.20
36716;DHT22;22699;51.034;3.730;2023-07-24T13:33:56;21.80;96.80
36716;DHT22;22699;51.034;3.730;2023-07-24T13:36:22;21.70;98.10
36716;DHT22;22699;51.034;3.730;2023-07-24T13:38:48;21.70;99.20
36716;DHT22;22699;51.034;3.730;2023-07-24T13:41:13;21.60;99.80
36716;DHT22;22699;51.034;3.730;2023-07-24T13:43:39;21.60;99.90
36716;DHT22;22699;51.034;3.730;2023-07-24T13:46:04;21.70;99.90
36716;DHT22;22699;51.034;3.730;2023-07-24T13:48:32;21.60;99.90
36716;DHT22;22699;51.034;3.730;2023-07-24T13:50:58;21.70;99.90
36716;DHT22;22699;51.034;3.730;2023-07-24T13:53:24;21.70;99.90
36716;DHT22;22699;51.034;3.730;2023-07-24T13:55:50;21.60;99.90
36716;DHT22;22699;51.034;3.730;2023-07-24T13:58:16;21.60;99.90
36716;DHT22;22699;51.034;3.730;2023-07-24T14:00:42;21.60;99.90
36716;DHT22;22699;51.034;3.730;2023-07-24T14:03:07;21.60;99.90
36716;DHT22;22699;51.034;3.730;2023-07-24T14:05:34;21.60;99.90
36716;DHT22;22699;51.034;3.730;2023-07-24T14:08:02;21.70;99.90
36716;DHT22;22699;51.034;3.730;2023-07-24T14:10:28;21.70;99.90
36716;DHT22;22699;51.034;3.730;2023-07-24T14:12:53;21.70;99.90
36716;DHT22;22699;51.034;3.730;2023-07-24T14:15:19;21.60;99.90
36716;DHT22;22699;51.034;3.730;2023-07-24T14:17:44;21.70;99.90
36716;DHT22;22699;51.034;3.730;2023-07-24T14:20:10;21.50;99.90
36716;DHT22;22699;51.034;3.730;2023-07-24T14:22:36;21.50;99.90
36716;DHT22;22699;51.034;3.730;2023-07-24T14:25:02;21.50;99.90
36716;DHT22;22699;51.034;3.730;2023-07-24T14:27:28;21.60;99.90
36716;DHT22;22699;51.034;3.730;2023-07-24T14:29:53;21.60;99.90
36716;DHT22;22699;51.034;3.730;2023-07-24T14:32:19;21.80;99.90
36716;DHT22;22699;51.034;3.730;2023-07-24T14:34:49;22.20;99.90
36716;DHT22;22699;51.034;3.730;2023-07-24T14:37:15;22.50;99.90
36716;DHT22;22699;51.034;3.730;2023-07-24T14:39:42;22.80;99.90
36716;DHT22;22699;51.034;3.730;2023-07-24T14:42:09;23.10;99.90
36716;DHT22;22699;51.034;3.730;2023-07-24T14:44:35;23.40;99.20
36716;DHT22;22699;51.034;3.730;2023-07-24T14:47:01;23.60;98.80
36716;DHT22;22699;51.034;3.730;2023-07-24T14:49:26;23.80;98.90
36716;DHT22;22699;51.034;3.730;2023-07-24T14:51:52;23.90;98.50
36716;DHT22;22699;51.034;3.730;2023-07-24T14:54:17;23.80;97.80
36716;DHT22;22699;51.034;3.730;2023-07-24T14:56:43;23.80;98.00
36716;DHT22;22699;51.034;3.730;2023-07-24T14:59:09;23.90;97.20
36716;DHT22;22699;51.034;3.730;2023-07-24T15:01:34;23.90;96.50
36716;DHT22;22699;51.034;3.730;2023-07-24T15:04:00;23.90;96.40
36716;DHT22;22699;51.034;3.730;2023-07-24T15:06:26;24.00;95.80
36716;DHT22;22699;51.034;3.730;2023-07-24T15:08:51;23.90;96.10
36716;DHT22;22699;51.034;3.730;2023-07-24T15:11:22;23.80;96.70
36716;DHT22;22699;51.034;3.730;2023-07-24T15:13:49;23.60;96.90
36716;DHT22;22699;51.034;3.730;2023-07-24T15:16:14;23.40;97.10
36716;DHT22;22699;51.034;3.730;2023-07-24T15:18:40;23.10;97.30
36716;DHT22;22699;51.034;3.730;2023-07-24T15:21:06;23.00;97.70
36716;DHT22;22699;51.034;3.730;2023-07-24T15:23:31;22.80;97.60
36716;DHT22;22699;51.034;3.730;2023-07-24T15:25:58;22.70;97.80
36716;DHT22;22699;51.034;3.730;2023-07-24T15:28:24;22.90;97.60
36716;DHT22;22699;51.034;3.730;2023-07-24T15:30:49;23.00;97.40
36716;DHT22;22699;51.034;3.730;2023-07-24T15:33:17;22.80;97.00
36716;DHT22;22699;51.034;3.730;2023-07-24T15:35:42;22.60;97.40
36716;DHT22;22699;51.034;3.730;2023-07-24T15:38:08;22.50;97.50
36716;DHT22;22699;51.034;3.730;2023-07-24T15:40:33;22.60;97.50
36716;DHT22;22699;51.034;3.730;2023-07-24T15:42:59;22.60;97.50
36716;DHT22;22699;51.034;3.730;2023-07-24T15:45:25;22.40;97.30